• Join FlightAware (Why Join?)
  • Login
  • US Flag 
10:19AM EST


 

Airport Tracker/Info


-or-


 

Live Flight TrackerFlight Track Log ✈ EJA951 ✈ 12-Nov-2013 ✈ KSDL - KOMA

Flight Track Log - Related Links

Times and Time Zones

All times are in EST time to prevent confusion due to time zone crossing. See the EJA951 flight status page for this flight to view local times or setup timezone preferences in your user account.

Time Position Orientation Groundspeed Altitude Reporting Facility
EST Latitude Longitude Course Direction KTS MPH feet Rate Location/Type
01:13PM 33.6000 -111.9333 337° Northwest 194 223 2,700  Level Phoenix TRACON
01:15PM 33.6667 -111.9667 337° Northwest 229 264 6,600 2,700 Climbing Phoenix TRACON
01:16PM 33.7256 -111.9383 22° Northeast 255 293 9,600 2,760 Climbing Albuquerque Center
01:17PM 33.8047 -111.8869 28° Northeast 319 367 12,000 2,160 Climbing Albuquerque Center
01:18PM 33.8956 -111.8286 28° Northeast 369 425 14,100 2,100 Climbing Albuquerque Center
01:19PM 33.9972 -111.7625 28° Northeast 369 425 16,400 1,920 Climbing Albuquerque Center
01:20PM 34.0894 -111.7136 24° Northeast 370 426 18,100 1,740 Climbing Albuquerque Center
01:21PM 34.1867 -111.6750 18° North 369 425 20,100 1,680 Climbing Albuquerque Center
01:22PM 34.2881 -111.6361 18° North 378 435 21,600 1,560 Climbing Albuquerque Center
01:23PM 34.4147 -111.5861 18° North 393 452 23,400 1,560 Climbing Albuquerque Center
01:24PM 34.5244 -111.5419 18° North 408 470 24,900 1,440 Climbing Albuquerque Center
01:26PM 34.6583 -111.3502 59° Northeast  Level FlightAware Approximate
01:26PM 34.6908 -111.3247 59° Northeast 442 509 28,000  Level Albuquerque Center
01:27PM 34.7731 -111.2081 49° Northeast 448 516 29,500 1,440 Climbing Albuquerque Center
01:28PM 34.8567 -111.0894 49° Northeast 455 524 31,000 1,440 Climbing Albuquerque Center
01:29PM 34.9411 -110.9642 51° Northeast 472 543 32,500 1,560 Climbing Albuquerque Center
01:30PM 35.0450 -110.8181 49° Northeast 475 547 34,300 1,500 Climbing Albuquerque Center
01:31PM 35.1267 -110.6917 52° Northeast 484 557 35,700 1,500 Climbing Albuquerque Center
01:32PM 35.2214 -110.5447 52° Northeast 491 565 37,400 1,500 Climbing Albuquerque Center
01:33PM 35.3028 -110.4194 51° Northeast 491 565 38,900 1,320 Climbing Albuquerque Center
01:34PM 35.3969 -110.2717 52° Northeast 491 565 40,200 960 Climbing Albuquerque Center
01:35PM 35.4769 -110.1458 52° Northeast 489 563 41,000 360 Climbing Albuquerque Center
01:36PM 35.5731 -109.9956 52° Northeast 498 573 41,000  Level Albuquerque Center
01:37PM 35.6572 -109.8633 52° Northeast 508 585 41,000  Level Albuquerque Center
01:38PM 35.7408 -109.7308 52° Northeast 511 588 41,000  Level Albuquerque Center
01:40PM 35.8400 -109.5753 52° Northeast 515 593 41,000  Level Albuquerque Center
01:41PM 35.9239 -109.4419 52° Northeast 513 590 41,000  Level Albuquerque Center
01:42PM 36.0217 -109.2850 52° Northeast 514 592 41,000  Level Albuquerque Center
01:43PM 36.1025 -109.1556 52° Northeast 513 590 41,000  Level Albuquerque Center
01:44PM 36.2058 -108.9922 52° Northeast 514 592 41,000  Level Albuquerque Center
01:45PM 36.2900 -108.8531 53° Northeast 515 593 41,000  Level Albuquerque Center
01:46PM 36.3739 -108.7167 53° Northeast 515 593 41,000  Level Albuquerque Center
01:47PM 36.4694 -108.5594 53° Northeast 511 588 41,000  Level Albuquerque Center
01:48PM 36.5919 -108.3581 53° Northeast 506 582 41,000  Level Denver Center
01:49PM 36.6739 -108.2231 53° Northeast 509 586 41,000  Level Denver Center
01:50PM 36.7606 -108.0553 57° Northeast 515 593 41,000  Level Denver Center
01:51PM 36.8050 -107.8903 71° East 524 603 41,000  Level Denver Center
01:52PM 36.8578 -107.7006 71° East 519 597 41,000  Level Denver Center
01:53PM 36.9008 -107.5342 72° East 522 601 41,000  Level Denver Center
01:54PM 36.9536 -107.3425 71° East 524 603 41,000  Level Denver Center
01:55PM 36.9983 -107.1769 71° East 524 603 41,000  Level Denver Center
01:56PM 37.0494 -106.9825 72° East 525 604 41,000  Level Denver Center
01:58PM 37.0939 -106.8147 72° East 529 609 41,000  Level Denver Center
01:59PM 37.1447 -106.6186 72° East 530 610 41,000  Level Denver Center
02:00PM 37.1883 -106.4486 72° East 534 615 41,000  Level Denver Center
02:01PM 37.2322 -106.2792 72° East 534 615 41,000  Level Denver Center
02:02PM 37.2844 -106.0808 72° East 535 616 41,000  Level Denver Center
02:03PM 37.3514 -105.9244 62° Northeast 532 612 41,000  Level Denver Center
02:04PM 37.4436 -105.7533 56° Northeast 530 610 41,000  Level Denver Center
02:05PM 37.5219 -105.6064 56° Northeast 528 608 41,000  Level Denver Center
02:06PM 37.6067 -105.4450 56° Northeast 531 611 41,000  Level Denver Center
02:07PM 37.6992 -105.2700 56° Northeast 535 616 41,000  Level Denver Center
02:08PM 37.7772 -105.1211 56° Northeast 531 611 41,000  Level Denver Center
02:09PM 37.8678 -104.9464 57° Northeast 530 610 41,000  Level Denver Center
02:10PM 37.9467 -104.7956 56° Northeast 533 613 41,000  Level Denver Center
02:11PM 38.0375 -104.6192 57° Northeast 532 612 41,000  Level Denver Center
02:12PM 38.1156 -104.4675 57° Northeast 533 613 41,000  Level Denver Center
02:13PM 38.1936 -104.3153 57° Northeast 533 613 41,000  Level Denver Center
02:14PM 38.2825 -104.1392 57° Northeast 527 606 41,000  Level Denver Center
02:15PM 38.3592 -103.9878 57° Northeast 529 609 41,000  Level Denver Center
02:16PM 38.4492 -103.8103 57° Northeast 530 610 41,000  Level Denver Center
02:17PM 38.5250 -103.6583 57° Northeast 529 609 41,000  Level Denver Center
02:18PM 38.6139 -103.4808 57° Northeast 529 609 41,000  Level Denver Center
02:19PM 38.6869 -103.3331 58° Northeast 530 610 41,000  Level Denver Center
02:20PM 38.7653 -103.1753 57° Northeast 530 610 41,000  Level Denver Center
02:21PM 38.8422 -103.0172 58° Northeast 526 605 41,000  Level Denver Center
02:22PM 38.9344 -102.8289 58° Northeast 522 601 41,000  Level Denver Center
02:23PM 39.0142 -102.6656 58° Northeast 521 600 41,000  Level Denver Center
02:24PM 39.0875 -102.5131 58° Northeast 521 600 41,000  Level Denver Center
02:25PM 39.1733 -102.3347 58° Northeast 524 603 41,000  Level Denver Center
02:26PM 39.2458 -102.1844 58° Northeast 518 596 41,000  Level Denver Center
02:28PM 39.3169 -102.0339 59° Northeast 512 589 41,000  Level Denver Center
02:29PM 39.3942 -101.8722 58° Northeast 506 582 41,000  Level Denver Center
02:30PM 39.4764 -101.6992 58° Northeast 505 581 41,000  Level Denver Center
02:31PM 39.5461 -101.5489 59° Northeast 509 586 41,000  Level Denver Center
02:32PM 39.6275 -101.3764 58° Northeast 505 581 41,000  Level Denver Center
02:33PM 39.6972 -101.2264 59° Northeast 507 583 41,000  Level Denver Center
02:34PM 39.7781 -101.0500 59° Northeast 510 587 41,000  Level Denver Center
02:35PM 39.8478 -100.8981 59° Northeast 511 588 41,000  Level Denver Center
02:36PM 39.9294 -100.7192 59° Northeast 515 593 41,000 -60 Level Denver Center
02:37PM 39.9992 -100.5644 59° Northeast 519 597 40,900 -660 Descending Denver Center
02:38PM 40.0806 -100.3847 59° Northeast 517 595 39,700 -1,140 Descending Denver Center
02:39PM 40.1469 -100.2358 60° Northeast 502 578 38,600 -1,140 Descending Denver Center
02:40PM 40.2222 -100.0700 59° Northeast 481 554 37,400 -1,140 Descending Denver Center
02:41PM 40.2858 -99.9283 59° Northeast 477 549 36,300 -720 Descending Denver Center
02:42PM 40.3578 -99.7653 60° Northeast 476 548 36,000 -180 Descending Denver Center
02:43PM 40.3986 -99.6761 59° Northeast 475 547 36,000 -420 Level Minneapolis Center
02:44PM 40.4667 -99.5200 60° Northeast 488 562 35,300 -540 Descending Minneapolis Center
02:45PM 40.5347 -99.3656 60° Northeast 489 563 35,000 -180 Descending Minneapolis Center
02:46PM 40.6161 -99.1772 60° Northeast 492 566 35,000  Level Minneapolis Center
02:47PM 40.6836 -99.0200 60° Northeast 495 570 35,000  Level Minneapolis Center
02:48PM 40.7558 -98.8525 60° Northeast 496 571 35,000  Level Minneapolis Center
02:49PM 40.8228 -98.6939 61° Northeast 495 570 35,000 -300 Level Minneapolis Center
02:50PM 40.8872 -98.5322 62° Northeast 497 572 34,500 -780 Descending Minneapolis Center
02:51PM 40.9414 -98.3458 69° East 494 568 33,400 -1,020 Descending Minneapolis Center
02:52PM 40.9903 -98.1764 69° East 496 571 32,400 -1,020 Descending Minneapolis Center
02:53PM 41.0397 -98.0064 69° East 497 572 31,400 -1,020 Descending Minneapolis Center
02:54PM 41.0897 -97.8350 69° East 499 574 30,400 -1,440 Descending Minneapolis Center
02:55PM 41.1381 -97.6650 69° East 496 571 28,500 -2,400 Descending Minneapolis Center
02:56PM 41.1933 -97.4725 69° East 472 543 25,500 -2,520 Descending Minneapolis Center
02:57PM 41.2336 -97.3267 70° East 463 533 23,300 -2,280 Descending Minneapolis Center
02:58PM 41.2781 -97.1706 69° East 456 525 20,900 -2,400 Descending Minneapolis Center
02:59PM 41.3244 -97.0053 69° East 445 512 18,400 -1,980 Descending Minneapolis Center
02:59PM 41.3253 -96.9619 89° East 433 498 18,400 -1,320 Level Minneapolis Center
03:00PM 41.3356 -96.9247 70° East 427 491 17,700 -1,920 Descending Minneapolis Center
03:00PM 41.3594 -96.8708 59° Northeast 427 491 16,900 -2,340 Descending Minneapolis Center
03:01PM 41.3425 -96.7911 106° East 402 463 15,600 -2,160 Descending Minneapolis Center
03:01PM 41.3386 -96.6942 93° East 406 467 14,700 -1,620 Descending Minneapolis Center
03:02PM 41.3158 -96.6219 113° Southeast 405 466 13,800 -1,620 Descending Minneapolis Center
03:02PM 41.3139 -96.5500 92° East 402 463 13,100 -1,620 Descending Minneapolis Center
03:03PM 41.2925 -96.4772 111° Southeast 405 466 12,200 -1,560 Descending Minneapolis Center
03:03PM 41.2881 -96.4056 95° East 403 464 11,500 -1,500 Descending Minneapolis Center
03:04PM 41.2694 -96.3411 111° Southeast 368 423 10,700 -1,500 Descending Minneapolis Center
03:04PM 41.2653 -96.2800 95° East 359 413 10,000 -1,500 Descending Minneapolis Center
03:05PM 41.2492 -96.2158 108° East 304 350 9,200 -1,680 Descending Minneapolis Center
03:05PM 41.2469 -96.1714 94° East 321 369 8,300 -2,400 Descending Minneapolis Center
03:06PM 41.2322 -96.1153 109° East 277 319 6,800 -2,520 Descending Minneapolis Center
03:06PM 41.2250 -96.0569 99° East 289 333 5,700 -1,560 Descending Minneapolis Center
03:07PM 41.2186 -96.0336 110° East 269 310 5,400 -1,200 Descending Minneapolis Center
03:07PM 41.2086 -95.9697 102° East 266 306 4,500 -1,380 Descending Minneapolis Center
03:08PM 41.1983 -95.9475 122° Southeast 229 264 4,000 -540 Descending Minneapolis Center
03:08PM 41.1697 -95.9131 138° Southeast 232 267 4,000  Level Minneapolis Center
03:09PM 41.1553 -95.8997 145° Southeast 181 208 4,000  Level Minneapolis Center
03:10PM 41.1300 -95.8708 139° Southeast 202 232 4,000  Level Minneapolis Center
03:10PM 41.1225 -95.8481 114° Southeast 181 208 4,000 -540 Level Minneapolis Center
03:11PM 41.1394 -95.8131 57° Northeast 199 229 3,500 -900 Descending Minneapolis Center
03:11PM 41.1533 -95.8058 21° North 188 216 3,100 -420 Descending Minneapolis Center
03:12PM 41.2058 -95.8108 356° North 169 194 3,000 -300 Descending Minneapolis Center
03:13PM 41.2353 -95.8256 339° North 168 193 2,600 -540 Descending Minneapolis Center
03:13PM 41.2408 -95.8344 310° West 136 157 2,500 -720 Descending Minneapolis Center
03:14PM 41.2636 -95.8528 329° Northwest 140 161 1,900 -840 Descending Minneapolis Center
03:14PM 41.2722 -95.8639 316° Northwest 123 142 1,700 -780 Descending Minneapolis Center
03:15PM 41.2925 -95.8806 328° Northwest 133 153 1,100 -720 Descending Minneapolis Center
03:17PM 41.3000 -95.8833 53° Northeast  Level FlightAware Approximate